Ashland, Texas
Current Conditions -  °F | °C
As of 11:53 AM on Friday 21 Nov 2014 (Local Time) from KGGG Reporting Station
Light Rain Light Rain  
Wind Chill: 61°   Ceiling: 500
Heat Index: 61°   Visibility: 3mi
Dew Point: 58°   Wind: 13mph
Humidity: 90%   Direction: 150°SSE
Pressure: 30.17"   Gusts: NA
Location:  32.6998°N, 94.6696°W
Report Text: KGGG 211753Z 15011KT 3SM -RA BR OVC005 16/14 A3017 RMK AO2 SLP215 P0004 60011 T01610144 10161 20139 58001
Loading
Personal Weather Stations






























Interactive Weather Map New forecast layout! Learn more

10-Day Weather Forecast

Advertisements
Track Severe Weather on mobile